createdAt,value
2022-12-20T00:01:26.534Z,101438.25
2022-12-20T00:03:56.295Z,101430.88
2022-12-20T00:06:24.818Z,101431.72
2022-12-20T00:09:00.744Z,101427.97
2022-12-20T00:11:30.164Z,101435.38
2022-12-20T00:13:58.421Z,101423.53
2022-12-20T00:16:28.744Z,101429.88
2022-12-20T00:18:59.796Z,101429.50
2022-12-20T00:21:28.129Z,101423.16
2022-12-20T00:23:56.004Z,101421.31
2022-12-20T00:26:27.983Z,101404.53
2022-12-20T00:28:55.665Z,101415.59
2022-12-20T00:31:26.526Z,101417.44
2022-12-20T00:33:55.718Z,101421.75
2022-12-20T00:36:25.105Z,101412.34
2022-12-20T00:38:55.863Z,101397.22
2022-12-20T00:41:26.606Z,101391.72
2022-12-20T00:43:54.090Z,101382.91
2022-12-20T00:46:24.751Z,101384.97
2022-12-20T00:48:54.514Z,101406.25
2022-12-20T00:51:25.880Z,101399.28
2022-12-20T00:53:54.126Z,101401.56
2022-12-20T00:56:21.570Z,101396.06
2022-12-20T00:58:49.051Z,101402.00
2022-12-20T01:01:27.538Z,101420.81
2022-12-20T01:03:55.137Z,101412.00
2022-12-20T01:06:23.883Z,101394.00
2022-12-20T01:08:51.365Z,101407.13
2022-12-20T01:11:25.724Z,101408.34
2022-12-20T01:13:56.323Z,101408.97
2022-12-20T01:16:31.477Z,101399.38
2022-12-20T01:18:58.457Z,101398.53
2022-12-20T01:21:27.504Z,101408.34
2022-12-20T01:23:55.862Z,101398.50
2022-12-20T01:26:26.956Z,101404.06
2022-12-20T01:28:57.484Z,101414.31
2022-12-20T01:31:25.027Z,101399.38
2022-12-20T01:33:52.849Z,101396.50
2022-12-20T01:36:26.689Z,101397.94
2022-12-20T01:39:03.956Z,101396.31
2022-12-20T01:41:33.016Z,101395.72
2022-12-20T01:44:27.475Z,101394.91
2022-12-20T01:46:55.360Z,101391.41
2022-12-20T01:49:32.785Z,101389.38
2022-12-20T01:52:17.868Z,101382.63
2022-12-20T01:54:58.526Z,101376.91
2022-12-20T01:57:36.004Z,101371.19
2022-12-20T02:00:05.857Z,101364.63
2022-12-20T02:02:42.220Z,101377.94
2022-12-20T02:05:10.257Z,101378.97
2022-12-20T02:07:39.066Z,101375.69
2022-12-20T02:10:07.979Z,101378.13
2022-12-20T02:12:45.289Z,101381.88
2022-12-20T02:15:32.837Z,101364.06
2022-12-20T02:18:23.064Z,101367.09
2022-12-20T02:21:16.415Z,101375.97
2022-12-20T02:24:16.473Z,101379.00
2022-12-20T02:27:21.586Z,101380.66
2022-12-20T02:30:18.728Z,101391.94
2022-12-20T02:33:04.689Z,101372.47
2022-12-20T02:35:35.797Z,101379.44
2022-12-20T02:38:34.449Z,101362.25
2022-12-20T02:41:12.319Z,101356.53
2022-12-20T02:44:01.879Z,101359.00
2022-12-20T02:46:29.791Z,101357.34
2022-12-20T02:49:01.953Z,101348.34
2022-12-20T02:51:32.860Z,101345.09
2022-12-20T02:54:00.624Z,101346.50
2022-12-20T02:56:38.197Z,101335.25
2022-12-20T02:59:15.300Z,101345.09
2022-12-20T03:01:50.543Z,101343.25
2022-12-20T03:04:20.615Z,101334.47
2022-12-20T03:07:05.797Z,101330.16
2022-12-20T03:09:38.113Z,101327.72
2022-12-20T03:12:07.987Z,101325.47
2022-12-20T03:14:38.107Z,101319.31
2022-12-20T03:17:08.684Z,101307.66
2022-12-20T03:19:38.796Z,101303.97
2022-12-20T03:22:06.595Z,101302.13
2022-12-20T03:24:34.056Z,101300.09
2022-12-20T03:27:01.943Z,101319.38
2022-12-20T03:29:29.205Z,101324.47
2022-12-20T03:31:56.264Z,101309.34
2022-12-20T03:34:23.713Z,101309.94
2022-12-20T03:36:50.743Z,101307.28
2022-12-20T03:39:17.937Z,101309.13
2022-12-20T03:41:45.032Z,101298.88
2022-12-20T03:44:16.402Z,101325.09
2022-12-20T03:46:43.613Z,101323.06
2022-12-20T03:49:10.919Z,101323.47
2022-12-20T03:51:44.957Z,101330.66
2022-12-20T03:54:12.363Z,101329.41
2022-12-20T03:56:55.855Z,101347.25
2022-12-20T03:59:22.954Z,101343.16
2022-12-20T04:01:50.217Z,101332.09
2022-12-20T04:04:17.367Z,101318.38
2022-12-20T04:06:44.948Z,101310.38
2022-12-20T04:09:12.195Z,101310.16
2022-12-20T04:11:45.477Z,101310.78
2022-12-20T04:14:15.096Z,101324.31
2022-12-20T04:16:43.635Z,101325.13
2022-12-20T04:19:11.988Z,101322.47
2022-12-20T04:21:45.568Z,101327.19
2022-12-20T04:24:13.665Z,101325.13
2022-12-20T04:26:56.029Z,101334.16
2022-12-20T04:29:23.425Z,101322.47
2022-12-20T04:31:51.010Z,101306.91
2022-12-20T04:34:19.176Z,101317.34
2022-12-20T04:36:46.462Z,101306.91
2022-12-20T04:39:20.069Z,101304.03
2022-12-20T04:42:05.458Z,101300.53
2022-12-20T04:44:33.438Z,101280.06
2022-12-20T04:47:00.641Z,101311.19
2022-12-20T04:49:28.951Z,101318.56
2022-12-20T04:52:16.018Z,101309.13
2022-12-20T04:54:43.295Z,101295.41
2022-12-20T04:57:16.581Z,101297.66
2022-12-20T04:59:44.176Z,101299.50
2022-12-20T05:02:13.532Z,101310.78
2022-12-20T05:04:51.579Z,101300.94
2022-12-20T05:07:18.627Z,101301.94
2022-12-20T05:09:51.282Z,101288.81
2022-12-20T05:12:18.723Z,101289.00
2022-12-20T05:14:45.756Z,101282.25
2022-12-20T05:17:15.799Z,101287.97
2022-12-20T05:19:42.801Z,101281.22
2022-12-20T05:22:43.931Z,101299.25
2022-12-20T05:25:32.246Z,101281.00
2022-12-20T05:28:04.052Z,101286.53
2022-12-20T05:30:34.712Z,101294.53
2022-12-20T05:33:01.952Z,101299.63
2022-12-20T05:35:30.291Z,101286.53
2022-12-20T05:38:04.080Z,101279.16
2022-12-20T05:40:32.001Z,101280.81
2022-12-20T05:42:59.789Z,101274.88
2022-12-20T05:45:35.897Z,101275.47
2022-12-20T05:48:08.647Z,101276.94
2022-12-20T05:50:39.419Z,101280.41
2022-12-20T05:53:24.126Z,101280.41
2022-12-20T05:55:54.535Z,101267.72
2022-12-20T05:58:26.259Z,101259.72
2022-12-20T06:01:04.849Z,101276.72
2022-12-20T06:03:38.338Z,101282.06
2022-12-20T06:06:14.651Z,101272.47
2022-12-20T06:08:44.914Z,101277.19
2022-12-20T06:11:18.015Z,101270.00
2022-12-20T06:13:50.432Z,101271.44
2022-12-20T06:16:20.799Z,101276.97
2022-12-20T06:18:47.968Z,101266.13
2022-12-20T06:21:16.501Z,101287.63
2022-12-20T06:23:44.718Z,101295.00
2022-12-20T06:26:13.733Z,101288.44
2022-12-20T06:28:54.598Z,101289.06
2022-12-20T06:31:25.546Z,101299.31
2022-12-20T06:33:54.852Z,101295.22
2022-12-20T06:36:23.959Z,101296.66
2022-12-20T06:38:51.940Z,101299.94
2022-12-20T06:41:19.441Z,101299.72
2022-12-20T06:43:47.131Z,101295.63
2022-12-20T06:46:14.536Z,101297.25
2022-12-20T06:48:41.601Z,101306.88
2022-12-20T06:51:11.232Z,101299.72
2022-12-20T06:53:38.604Z,101299.72
2022-12-20T06:56:06.487Z,101297.88
2022-12-20T06:58:33.383Z,101310.38
2022-12-20T07:01:00.868Z,101313.84
2022-12-20T07:03:28.563Z,101312.22
2022-12-20T07:05:56.177Z,101313.66
2022-12-20T07:08:24.563Z,101308.72
2022-12-20T07:10:52.767Z,101306.47
2022-12-20T07:13:20.338Z,101309.16
2022-12-20T07:15:47.526Z,101304.63
2022-12-20T07:18:14.471Z,101306.06
2022-12-20T07:20:41.887Z,101297.06
2022-12-20T07:23:08.812Z,101303.00
2022-12-20T07:25:36.137Z,101300.94
2022-12-20T07:28:04.183Z,101300.13
2022-12-20T07:30:31.244Z,101305.03
2022-12-20T07:32:58.947Z,101299.28
2022-12-20T07:35:26.656Z,101301.56
2022-12-20T07:37:53.821Z,101315.50
2022-12-20T07:40:20.790Z,101326.56
2022-12-20T07:42:49.036Z,101330.03
2022-12-20T07:45:16.420Z,101331.28
2022-12-20T07:47:43.993Z,101321.03
2022-12-20T07:50:12.047Z,101325.31
2022-12-20T07:52:41.435Z,101324.28
2022-12-20T07:55:10.555Z,101335.38
2022-12-20T07:57:58.904Z,101335.16
2022-12-20T08:00:25.929Z,101335.56
2022-12-20T08:03:32.083Z,101331.69
2022-12-20T08:06:03.985Z,101326.75
2022-12-20T08:08:33.979Z,101338.22
2022-12-20T08:11:04.183Z,101332.06
2022-12-20T08:13:32.962Z,101334.34
2022-12-20T08:16:00.874Z,101332.91
2022-12-20T08:18:27.842Z,101325.09
2022-12-20T08:20:54.936Z,101324.72
2022-12-20T08:23:21.913Z,101330.44
2022-12-20T08:25:49.135Z,101330.44
2022-12-20T08:28:16.460Z,101323.69
2022-12-20T08:30:43.584Z,101322.84
2022-12-20T08:33:11.618Z,101324.69
2022-12-20T08:35:38.567Z,101315.47
2022-12-20T08:38:05.687Z,101319.78
2022-12-20T08:40:32.715Z,101324.69
2022-12-20T08:43:03.773Z,101302.34
2022-12-20T08:45:35.255Z,101304.56
2022-12-20T08:48:02.306Z,101300.28
2022-12-20T08:50:29.563Z,101297.19
2022-12-20T08:52:56.496Z,101307.03
2022-12-20T08:55:29.142Z,101307.84
2022-12-20T08:57:56.934Z,101307.22
2022-12-20T09:00:24.091Z,101309.88
2022-12-20T09:02:52.042Z,101317.66
2022-12-20T09:05:19.420Z,101320.94
2022-12-20T09:07:46.556Z,101324.00
2022-12-20T09:10:14.938Z,101320.72
2022-12-20T09:12:41.950Z,101310.03
2022-12-20T09:15:10.156Z,101302.84
2022-12-20T09:17:37.246Z,101310.63
2022-12-20T09:20:05.344Z,101293.38
2022-12-20T09:22:32.224Z,101294.59
2022-12-20T09:24:59.910Z,101295.81
2022-12-20T09:27:26.791Z,101294.13
2022-12-20T09:29:53.786Z,101295.97
2022-12-20T09:32:20.793Z,101294.31
2022-12-20T09:34:48.351Z,101299.00
2022-12-20T09:37:15.325Z,101297.50
2022-12-20T09:39:42.345Z,101305.06
2022-12-20T09:42:10.040Z,101284.63
2022-12-20T09:44:41.360Z,101283.72
2022-12-20T09:47:17.165Z,101278.28
2022-12-20T09:49:50.015Z,101278.16
2022-12-20T09:52:41.675Z,101279.88
2022-12-20T09:55:19.893Z,101280.19
2022-12-20T09:57:56.055Z,101275.53
2022-12-20T10:00:23.631Z,101267.00
2022-12-20T10:05:56.611Z,101271.78
2022-12-20T10:08:59.804Z,101265.91
2022-12-20T10:12:12.920Z,101280.13
2022-12-20T10:14:57.966Z,101281.59
2022-12-20T10:17:50.022Z,101281.44
2022-12-20T10:20:32.819Z,101281.63
2022-12-20T10:23:15.309Z,101283.72
2022-12-20T10:25:43.470Z,101277.19
2022-12-20T10:28:16.800Z,101290.16
2022-12-20T10:30:44.157Z,101266.59
2022-12-20T10:33:22.454Z,101265.19
2022-12-20T10:35:50.702Z,101257.03
2022-12-20T10:38:18.445Z,101257.47
2022-12-20T10:41:19.984Z,101244.06
2022-12-20T10:43:50.101Z,101230.66
2022-12-20T10:46:17.464Z,101220.19
2022-12-20T10:48:48.121Z,101223.69
2022-12-20T10:51:22.399Z,101219.00
2022-12-20T10:54:04.166Z,101211.31
2022-12-20T10:56:38.761Z,101207.56
2022-12-20T10:59:17.963Z,101208.44
2022-12-20T11:01:47.593Z,101195.59
2022-12-20T11:04:39.478Z,101184.69
2022-12-20T11:07:26.946Z,101179.22
2022-12-20T11:10:08.918Z,101181.69
2022-12-20T11:12:36.117Z,101166.72
2022-12-20T11:15:20.543Z,101163.53
2022-12-20T11:18:32.020Z,101166.53
2022-12-20T11:21:28.961Z,101155.44
2022-12-20T11:24:49.935Z,101142.06
2022-12-20T11:27:38.214Z,101167.63
2022-12-20T11:30:14.472Z,101157.41
2022-12-20T11:33:05.070Z,101155.06
2022-12-20T11:35:53.496Z,101143.03
2022-12-20T11:38:48.516Z,101139.72
2022-12-20T11:41:57.998Z,101137.28
2022-12-20T11:45:14.723Z,101125.47
2022-12-20T11:47:44.427Z,101127.38
2022-12-20T11:50:31.618Z,101127.56
2022-12-20T11:53:41.347Z,101122.91
2022-12-20T11:56:22.156Z,101115.34
2022-12-20T11:59:15.072Z,101110.53
2022-12-20T12:02:09.427Z,101114.84
2022-12-20T12:04:57.427Z,101118.16
2022-12-20T12:07:30.881Z,101112.59
2022-12-20T12:10:14.107Z,101124.97
2022-12-20T12:12:48.748Z,101110.72
2022-12-20T12:15:16.892Z,101110.97
2022-12-20T12:18:03.891Z,101115.53
2022-12-20T12:21:08.310Z,101106.81
2022-12-20T12:24:02.219Z,101109.41
2022-12-20T12:26:39.447Z,101101.25
2022-12-20T12:29:17.889Z,101093.09
2022-12-20T12:31:58.342Z,101082.63
2022-12-20T12:35:03.714Z,101090.00
2022-12-20T12:38:02.682Z,101087.13
2022-12-20T12:40:38.115Z,101098.44
2022-12-20T12:43:36.490Z,101092.16
2022-12-20T12:46:30.573Z,101080.88
2022-12-20T12:48:59.061Z,101076.31
2022-12-20T12:51:33.446Z,101066.63
2022-12-20T12:54:29.389Z,101068.75
2022-12-20T12:57:11.970Z,101069.78
2022-12-20T12:59:38.874Z,101050.78
2022-12-20T13:02:15.262Z,101042.06
2022-12-20T13:05:25.666Z,101041.38
2022-12-20T13:07:53.534Z,101045.59
2022-12-20T13:10:40.629Z,101047.22
2022-12-20T13:13:22.858Z,101045.94
2022-12-20T13:15:52.612Z,101047.47
2022-12-20T13:18:25.505Z,101042.34
2022-12-20T13:21:29.537Z,101042.56
2022-12-20T13:24:37.959Z,101044.94
2022-12-20T13:27:24.104Z,101056.03
2022-12-20T13:30:12.528Z,101052.31
2022-12-20T13:32:48.816Z,101045.94
2022-12-20T13:35:24.956Z,101048.72
2022-12-20T13:38:05.740Z,101057.69
2022-12-20T13:40:47.327Z,101053.63
2022-12-20T13:43:30.363Z,101061.75
2022-12-20T13:46:14.889Z,101063.75
2022-12-20T13:48:53.208Z,101076.22
2022-12-20T13:51:27.785Z,101063.50
2022-12-20T13:54:01.288Z,101055.13
2022-12-20T13:56:28.577Z,101053.16
2022-12-20T13:58:59.063Z,101052.91
2022-12-20T14:01:27.095Z,101051.16
2022-12-20T14:03:54.479Z,101050.22
2022-12-20T14:06:27.100Z,101043.94
2022-12-20T14:08:54.427Z,101045.69
2022-12-20T14:11:28.236Z,101037.41
2022-12-20T14:14:01.207Z,101041.72
2022-12-20T14:16:32.678Z,101055.56
2022-12-20T14:19:13.886Z,101038.91
2022-12-20T14:21:45.071Z,101035.53
2022-12-20T14:24:20.077Z,101032.28
2022-12-20T14:26:51.904Z,101030.25
2022-12-20T14:29:27.357Z,101022.69
2022-12-20T14:31:54.312Z,101025.81
2022-12-20T14:34:39.848Z,101035.34
2022-12-20T14:37:27.184Z,101035.81
2022-12-20T14:39:58.190Z,101045.94
2022-12-20T14:42:34.529Z,101022.06
2022-12-20T14:45:10.831Z,101017.78
2022-12-20T14:47:42.722Z,101014.75
2022-12-20T14:50:24.871Z,101009.84
2022-12-20T14:52:51.920Z,101010.75
2022-12-20T14:55:28.964Z,101012.81
2022-12-20T14:57:57.878Z,101023.97
2022-12-20T15:00:29.848Z,101027.91
2022-12-20T15:02:57.268Z,101028.16
2022-12-20T15:05:36.725Z,101016.88
2022-12-20T15:08:34.639Z,101013.81
2022-12-20T15:11:24.122Z,101012.28
2022-12-20T15:13:54.813Z,101011.34
2022-12-20T15:16:30.244Z,101018.53
2022-12-20T15:19:02.120Z,100997.63
2022-12-20T15:21:37.255Z,100991.81
2022-12-20T15:24:10.910Z,100986.78
2022-12-20T15:26:38.535Z,100998.44
2022-12-20T15:29:06.982Z,101000.50
2022-12-20T15:31:36.456Z,100991.31
2022-12-20T15:34:32.669Z,100984.94
2022-12-20T15:37:00.377Z,100980.25
2022-12-20T15:39:28.603Z,100976.53
2022-12-20T15:41:58.922Z,100971.19
2022-12-20T15:44:29.541Z,100975.81
2022-12-20T15:46:57.308Z,100973.22
2022-12-20T15:49:33.416Z,100965.88
2022-12-20T15:52:00.613Z,100970.84
2022-12-20T15:54:37.074Z,100980.34
2022-12-20T15:57:10.315Z,100976.50
2022-12-20T16:02:27.411Z,100984.47
2022-12-20T16:04:56.628Z,100967.25
2022-12-20T16:07:24.047Z,100970.16
2022-12-20T16:09:51.391Z,100964.22
2022-12-20T16:12:29.540Z,100968.16
2022-12-20T16:14:57.285Z,100958.94
2022-12-20T16:17:24.788Z,100957.53
2022-12-20T16:19:51.737Z,100956.13
2022-12-20T16:22:22.462Z,100956.59
2022-12-20T16:24:50.186Z,100954.44
2022-12-20T16:27:17.487Z,100946.44
2022-12-20T16:29:45.377Z,100955.09
2022-12-20T16:32:18.575Z,100948.59
2022-12-20T16:34:46.235Z,100952.75
2022-12-20T16:37:13.896Z,100955.03
2022-12-20T16:39:42.651Z,100942.34
2022-12-20T16:42:21.988Z,100936.41
2022-12-20T16:44:53.551Z,100937.03
2022-12-20T16:47:20.937Z,100937.69
2022-12-20T16:49:52.825Z,100934.81
2022-12-20T16:52:22.539Z,100934.00
2022-12-20T16:54:50.537Z,100936.09
2022-12-20T16:57:17.544Z,100938.97
2022-12-20T16:59:44.819Z,100922.59
2022-12-20T17:02:28.886Z,100930.59
2022-12-20T17:04:56.491Z,100941.72
2022-12-20T17:07:23.754Z,100920.59
2022-12-20T17:09:51.574Z,100931.50
2022-12-20T17:12:21.955Z,100937.63
2022-12-20T17:14:49.707Z,100930.25
2022-12-20T17:17:18.191Z,100931.28
2022-12-20T17:19:45.656Z,100922.69
2022-12-20T17:25:02.861Z,100928.47
2022-12-20T17:27:29.985Z,100913.72
2022-12-20T17:29:56.998Z,100914.53
2022-12-20T17:32:25.592Z,100896.91
2022-12-20T17:34:53.375Z,100899.19
2022-12-20T17:37:21.560Z,100919.72
2022-12-20T17:39:49.565Z,100926.53
2022-12-20T17:42:16.936Z,100929.56
2022-12-20T17:44:46.908Z,100920.75
2022-12-20T17:47:14.173Z,100927.72
2022-12-20T17:49:41.137Z,100926.75
2022-12-20T17:52:16.179Z,100926.59
2022-12-20T17:54:43.439Z,100945.25
2022-12-20T17:57:15.508Z,100931.34
2022-12-20T17:59:43.737Z,100921.25
2022-12-20T18:02:23.374Z,100912.22
2022-12-20T18:04:51.367Z,100910.38
2022-12-20T18:07:18.546Z,100919.78
2022-12-20T18:09:48.209Z,100911.41
2022-12-20T18:12:15.192Z,100913.63
2022-12-20T18:14:42.565Z,100917.72
2022-12-20T18:17:09.558Z,100921.78
2022-12-20T18:19:36.896Z,100918.75
2022-12-20T18:22:05.143Z,100912.97
2022-12-20T18:24:32.204Z,100917.44
2022-12-20T18:26:59.478Z,100906.75
2022-12-20T18:29:26.319Z,100904.69
2022-12-20T18:31:53.337Z,100909.44
2022-12-20T18:34:20.520Z,100911.22
2022-12-20T18:36:47.391Z,100907.50
2022-12-20T18:39:14.889Z,100915.72
2022-12-20T18:41:43.787Z,100915.13
2022-12-20T18:44:12.085Z,100911.88
2022-12-20T18:46:39.447Z,100913.94
2022-12-20T18:49:06.567Z,100908.16
2022-12-20T18:51:37.002Z,100902.84
2022-12-20T18:54:07.126Z,100913.72
2022-12-20T18:56:37.953Z,100906.09
2022-12-20T18:59:11.342Z,100916.16
2022-12-20T19:01:39.929Z,100910.84
2022-12-20T19:04:08.051Z,100900.97
2022-12-20T19:06:36.943Z,100904.25
2022-12-20T19:09:08.162Z,100903.66
2022-12-20T19:11:35.531Z,100890.91
2022-12-20T19:14:03.753Z,100897.44
2022-12-20T19:16:32.912Z,100905.44
2022-12-20T19:19:02.500Z,100896.16
2022-12-20T19:21:33.233Z,100917.69
2022-12-20T19:24:05.210Z,100893.91
2022-12-20T19:26:33.014Z,100914.97
2022-12-20T19:29:00.376Z,100911.25
2022-12-20T19:31:33.391Z,100906.06
2022-12-20T19:34:06.049Z,100911.81
2022-12-20T19:36:42.021Z,100917.50
2022-12-20T19:39:16.020Z,100910.91
2022-12-20T19:41:43.413Z,100909.88
2022-12-20T19:44:10.672Z,100907.22
2022-12-20T19:46:38.590Z,100901.28
2022-12-20T19:49:05.927Z,100906.84
2022-12-20T19:51:33.773Z,100912.00
2022-12-20T19:54:01.023Z,100910.38
2022-12-20T19:56:33.646Z,100908.38
2022-12-20T19:59:02.343Z,100902.00
2022-12-20T20:01:29.718Z,100900.81
2022-12-20T20:04:00.107Z,100891.00
2022-12-20T20:06:28.050Z,100891.38
2022-12-20T20:08:59.607Z,100899.16
2022-12-20T20:11:27.798Z,100886.06
2022-12-20T20:13:55.723Z,100879.91
2022-12-20T20:16:23.298Z,100885.81
2022-12-20T20:18:51.099Z,100885.81
2022-12-20T20:21:23.159Z,100887.47
2022-12-20T20:23:52.626Z,100881.09
2022-12-20T20:26:26.588Z,100876.94
2022-12-20T20:28:54.092Z,100880.63
2022-12-20T20:31:22.384Z,100878.56
2022-12-20T20:33:50.561Z,100892.34
2022-12-20T20:36:21.622Z,100890.72
2022-12-20T20:38:50.313Z,100878.78
2022-12-20T20:41:18.112Z,100879.81
2022-12-20T20:43:45.237Z,100874.72
2022-12-20T20:46:15.273Z,100870.78
2022-12-20T20:48:43.125Z,100863.59
2022-12-20T20:51:11.173Z,100872.78
2022-12-20T20:53:38.314Z,100869.28
2022-12-20T20:56:06.977Z,100872.19
2022-12-20T20:58:35.379Z,100873.22
2022-12-20T21:01:04.691Z,100869.38
2022-12-20T21:03:32.547Z,100854.25
2022-12-20T21:08:47.141Z,100857.84
2022-12-20T21:11:14.374Z,100859.94
2022-12-20T21:13:41.614Z,100861.78
2022-12-20T21:16:20.261Z,100853.78
2022-12-20T21:18:56.914Z,100860.97
2022-12-20T21:21:25.595Z,100857.72
2022-12-20T21:23:53.966Z,100855.25
2022-12-20T21:26:22.894Z,100867.56
2022-12-20T21:28:49.834Z,100865.94
2022-12-20T21:31:19.514Z,100868.38
2022-12-20T21:33:47.269Z,100859.78
2022-12-20T21:36:17.734Z,100869.78
2022-12-20T21:38:50.510Z,100865.72
2022-12-20T21:41:20.152Z,100858.31
2022-12-20T21:43:47.191Z,100840.75
2022-12-20T21:46:14.709Z,100841.09
2022-12-20T21:48:43.817Z,100847.09
2022-12-20T21:51:14.637Z,100854.66
2022-12-20T21:53:54.334Z,100857.34
2022-12-20T21:56:23.527Z,100855.09
2022-12-20T21:58:51.601Z,100846.50
2022-12-20T22:01:24.462Z,100841.19
2022-12-20T22:04:00.206Z,100838.16
2022-12-20T22:06:28.145Z,100839.78
2022-12-20T22:09:01.526Z,100834.50
2022-12-20T22:11:28.694Z,100841.63
2022-12-20T22:13:56.564Z,100824.66
2022-12-20T22:16:26.923Z,100850.06
2022-12-20T22:18:56.284Z,100843.91
2022-12-20T22:21:32.219Z,100841.03
2022-12-20T22:24:01.300Z,100841.47
2022-12-20T22:26:31.412Z,100843.09
2022-12-20T22:29:02.372Z,100828.72
2022-12-20T22:31:30.497Z,100826.22
2022-12-20T22:33:58.837Z,100830.28
2022-12-20T22:36:28.654Z,100830.06
2022-12-20T22:38:57.210Z,100823.25
2022-12-20T22:41:35.043Z,100818.50
2022-12-20T22:44:03.106Z,100811.53
2022-12-20T22:46:31.058Z,100812.59
2022-12-20T22:48:59.233Z,100815.47
2022-12-20T22:51:27.860Z,100830.81
2022-12-20T22:53:58.125Z,100811.09
2022-12-20T22:56:25.641Z,100821.78
2022-12-20T22:58:53.304Z,100807.03
2022-12-20T23:01:21.700Z,100811.91
2022-12-20T23:03:49.086Z,100814.34
2022-12-20T23:06:19.425Z,100812.72
2022-12-20T23:08:47.417Z,100802.88
2022-12-20T23:11:43.474Z,100813.53
2022-12-20T23:14:36.126Z,100814.34
2022-12-20T23:17:04.941Z,100803.31
2022-12-20T23:19:51.457Z,100804.34
2022-12-20T23:22:37.804Z,100809.09
2022-12-20T23:25:25.470Z,100819.63
2022-12-20T23:27:53.944Z,100808.81
2022-12-20T23:30:24.761Z,100821.09
2022-12-20T23:32:53.600Z,100821.53
2022-12-20T23:35:21.503Z,100816.66
2022-12-20T23:37:48.894Z,100811.53
2022-12-20T23:40:17.421Z,100822.06
2022-12-20T23:42:44.671Z,100824.13
2022-12-20T23:45:11.960Z,100817.25
2022-12-20T23:47:38.925Z,100813.16
2022-12-20T23:50:06.720Z,100807.47
2022-12-20T23:52:34.079Z,100792.78
2022-12-20T23:55:01.002Z,100788.38
2022-12-20T23:57:31.240Z,100795.78
2022-12-20T23:59:58.627Z,100795.47
